createdAt,value
2018-07-31T00:00:58.838Z,5.43
2018-07-31T00:03:27.074Z,5.53
2018-07-31T00:05:55.144Z,5.60
2018-07-31T00:08:23.259Z,6.00
2018-07-31T00:10:51.436Z,4.93
2018-07-31T00:13:19.547Z,5.40
2018-07-31T00:15:47.639Z,5.17
2018-07-31T00:18:15.840Z,5.20
2018-07-31T00:20:43.997Z,5.50
2018-07-31T00:23:12.128Z,4.80
2018-07-31T00:25:40.267Z,5.30
2018-07-31T00:28:08.396Z,5.47
2018-07-31T00:30:36.548Z,4.63
2018-07-31T00:33:04.671Z,5.20
2018-07-31T00:35:32.790Z,4.93
2018-07-31T00:38:00.972Z,4.90
2018-07-31T00:40:29.082Z,5.80
2018-07-31T00:42:57.220Z,5.10
2018-07-31T00:45:25.363Z,5.20
2018-07-31T00:47:53.540Z,4.80
2018-07-31T00:50:21.665Z,4.67
2018-07-31T00:52:49.779Z,5.10
2018-07-31T00:55:17.882Z,4.60
2018-07-31T00:57:46.027Z,4.80
2018-07-31T01:00:14.130Z,4.90
2018-07-31T01:02:42.318Z,5.00
2018-07-31T01:05:10.447Z,4.77
2018-07-31T01:07:38.547Z,4.50
2018-07-31T01:10:06.780Z,4.50
2018-07-31T01:12:34.920Z,4.40
2018-07-31T01:15:03.035Z,4.63
2018-07-31T01:17:31.189Z,4.70
2018-07-31T01:19:59.310Z,4.90
2018-07-31T01:22:27.411Z,4.60
2018-07-31T01:24:55.547Z,4.20
2018-07-31T01:27:23.697Z,4.43
2018-07-31T01:29:51.811Z,4.30
2018-07-31T01:32:19.942Z,4.33
2018-07-31T01:34:48.078Z,4.53
2018-07-31T01:37:16.198Z,4.23
2018-07-31T01:39:44.307Z,4.60
2018-07-31T01:42:12.463Z,4.00
2018-07-31T01:44:40.567Z,4.60
2018-07-31T01:47:08.787Z,4.57
2018-07-31T01:49:36.895Z,4.40
2018-07-31T01:52:05.036Z,4.07
2018-07-31T01:54:33.131Z,4.63
2018-07-31T01:57:01.255Z,4.10
2018-07-31T01:59:29.417Z,4.03
2018-07-31T02:01:57.534Z,4.10
2018-07-31T02:04:25.684Z,4.23
2018-07-31T02:06:53.807Z,4.30
2018-07-31T02:09:21.929Z,4.93
2018-07-31T02:11:50.038Z,4.40
2018-07-31T02:14:18.119Z,4.47
2018-07-31T02:16:46.203Z,4.20
2018-07-31T02:19:14.378Z,4.57
2018-07-31T02:21:42.533Z,3.73
2018-07-31T02:24:10.461Z,4.50
2018-07-31T02:26:38.582Z,4.33
2018-07-31T02:29:06.732Z,4.20
2018-07-31T02:31:34.832Z,3.97
2018-07-31T02:34:02.955Z,3.90
2018-07-31T02:36:31.069Z,4.10
2018-07-31T02:38:59.160Z,4.40
2018-07-31T02:41:27.263Z,4.40
2018-07-31T02:43:55.381Z,4.40
2018-07-31T02:46:23.498Z,4.70
2018-07-31T02:48:51.636Z,4.30
2018-07-31T02:51:19.771Z,4.40
2018-07-31T02:53:47.892Z,4.50
2018-07-31T02:56:16.032Z,4.40
2018-07-31T02:58:44.160Z,4.23
2018-07-31T03:01:12.255Z,4.00
2018-07-31T03:03:40.376Z,4.40
2018-07-31T03:06:08.273Z,4.30
2018-07-31T03:08:36.387Z,4.20
2018-07-31T03:11:04.496Z,4.20
2018-07-31T03:13:32.401Z,4.87
2018-07-31T03:16:00.527Z,4.70
2018-07-31T03:18:28.655Z,4.60
2018-07-31T03:20:56.769Z,4.60
2018-07-31T03:23:24.683Z,4.63
2018-07-31T03:25:52.793Z,4.67
2018-07-31T03:28:20.922Z,3.93
2018-07-31T03:30:49.043Z,4.70
2018-07-31T03:33:17.156Z,3.87
2018-07-31T03:35:45.308Z,4.20
2018-07-31T03:40:47.799Z,3.70
2018-07-31T03:43:15.975Z,4.30
2018-07-31T03:45:44.101Z,3.90
2018-07-31T03:48:12.526Z,3.87
2018-07-31T03:50:40.654Z,3.63
2018-07-31T03:53:08.892Z,3.90
2018-07-31T03:55:37.008Z,4.00
2018-07-31T03:58:05.124Z,3.70
2018-07-31T04:00:33.232Z,4.43
2018-07-31T04:03:01.344Z,3.80
2018-07-31T04:05:29.466Z,3.77
2018-07-31T04:07:57.558Z,4.07
2018-07-31T04:10:25.699Z,3.93
2018-07-31T04:12:53.828Z,3.60
2018-07-31T04:15:21.961Z,3.70
2018-07-31T04:17:54.047Z,3.87
2018-07-31T04:20:22.234Z,4.03
2018-07-31T04:22:50.349Z,3.70
2018-07-31T04:25:18.488Z,3.77
2018-07-31T04:27:46.607Z,3.90
2018-07-31T04:30:14.572Z,3.33
2018-07-31T04:32:42.699Z,3.57
2018-07-31T04:35:10.813Z,3.53
2018-07-31T04:37:38.913Z,3.40
2018-07-31T04:40:07.043Z,3.70
2018-07-31T04:42:35.194Z,3.47
2018-07-31T04:45:03.518Z,3.43
2018-07-31T04:47:31.403Z,3.60
2018-07-31T04:49:59.526Z,3.13
2018-07-31T04:52:27.688Z,3.07
2018-07-31T04:54:55.800Z,3.10
2018-07-31T04:57:23.690Z,3.10
2018-07-31T04:59:51.782Z,3.03
2018-07-31T05:02:19.911Z,3.00
2018-07-31T05:04:48.035Z,3.17
2018-07-31T05:07:16.163Z,3.10
2018-07-31T05:09:44.305Z,3.17
2018-07-31T05:12:12.421Z,3.07
2018-07-31T05:14:40.551Z,3.00
2018-07-31T05:17:08.689Z,2.80
2018-07-31T05:19:36.794Z,2.63
2018-07-31T05:22:04.945Z,2.70
2018-07-31T05:24:33.032Z,2.73
2018-07-31T05:27:01.184Z,2.77
2018-07-31T05:29:29.328Z,2.57
2018-07-31T05:31:57.236Z,2.63
2018-07-31T05:34:26.159Z,2.70
2018-07-31T05:36:54.247Z,2.77
2018-07-31T05:39:22.193Z,2.90
2018-07-31T05:41:50.336Z,2.97
2018-07-31T05:44:18.467Z,2.90
2018-07-31T05:46:46.343Z,2.73
2018-07-31T05:49:14.476Z,2.57
2018-07-31T05:51:42.638Z,2.63
2018-07-31T05:54:10.740Z,2.30
2018-07-31T05:56:38.870Z,2.80
2018-07-31T05:59:06.973Z,2.57
2018-07-31T06:01:35.064Z,2.87
2018-07-31T06:04:03.200Z,2.50
2018-07-31T06:06:31.372Z,2.50
2018-07-31T06:08:59.574Z,2.97
2018-07-31T06:11:27.872Z,2.60
2018-07-31T06:13:55.952Z,2.90
2018-07-31T06:16:24.257Z,2.30
2018-07-31T06:18:52.620Z,2.30
2018-07-31T06:21:21.022Z,2.60
2018-07-31T06:23:49.136Z,2.80
2018-07-31T06:26:17.248Z,2.33
2018-07-31T06:28:45.399Z,2.30
2018-07-31T06:31:13.275Z,2.63
2018-07-31T06:33:41.175Z,2.40
2018-07-31T06:36:09.536Z,2.60
2018-07-31T06:38:37.678Z,2.20
2018-07-31T06:41:05.880Z,2.30
2018-07-31T06:43:34.036Z,2.37
2018-07-31T06:46:02.106Z,2.67
2018-07-31T06:48:30.009Z,2.37
2018-07-31T06:50:58.150Z,2.30
2018-07-31T06:53:26.111Z,2.67
2018-07-31T06:55:54.074Z,2.60
2018-07-31T06:58:22.422Z,1.80
2018-07-31T07:00:50.531Z,1.90
2018-07-31T07:03:18.679Z,2.60
2018-07-31T07:05:47.060Z,2.40
2018-07-31T07:08:15.578Z,2.30
2018-07-31T07:10:43.447Z,2.10
2018-07-31T07:13:11.606Z,2.40
2018-07-31T07:15:39.855Z,2.30
2018-07-31T07:18:07.960Z,1.90
2018-07-31T07:20:36.062Z,1.80
2018-07-31T07:23:04.014Z,2.10
2018-07-31T07:25:31.941Z,2.10
2018-07-31T07:28:00.119Z,2.23
2018-07-31T07:30:28.184Z,1.90
2018-07-31T07:32:56.304Z,2.20
2018-07-31T07:35:24.283Z,2.40
2018-07-31T07:37:52.428Z,2.23
2018-07-31T07:40:20.564Z,1.90
2018-07-31T07:42:48.676Z,2.20
2018-07-31T07:45:16.798Z,2.00
2018-07-31T07:47:44.904Z,2.03
2018-07-31T07:50:13.025Z,2.10
2018-07-31T07:52:41.136Z,2.27
2018-07-31T07:55:09.400Z,2.40
2018-07-31T07:57:37.540Z,1.90
2018-07-31T08:00:07.331Z,2.53
2018-07-31T08:02:35.828Z,1.90
2018-07-31T08:05:03.968Z,1.53
2018-07-31T08:07:32.106Z,1.70
2018-07-31T08:10:00.281Z,1.93
2018-07-31T08:12:28.375Z,1.90
2018-07-31T08:14:56.507Z,1.70
2018-07-31T08:17:24.603Z,1.63
2018-07-31T08:19:52.715Z,2.00
2018-07-31T08:22:20.839Z,1.53
2018-07-31T08:24:49.008Z,1.47
2018-07-31T08:27:16.931Z,1.63
2018-07-31T08:29:45.120Z,1.43
2018-07-31T08:32:13.522Z,1.90
2018-07-31T08:34:41.426Z,1.40
2018-07-31T08:37:09.515Z,1.50
2018-07-31T08:39:37.672Z,1.30
2018-07-31T08:42:05.771Z,1.67
2018-07-31T08:44:33.859Z,1.50
2018-07-31T08:47:02.024Z,1.50
2018-07-31T08:49:30.156Z,1.40
2018-07-31T08:51:58.271Z,1.53
2018-07-31T08:54:26.371Z,1.60
2018-07-31T08:56:54.266Z,1.30
2018-07-31T08:59:22.351Z,1.47
2018-07-31T09:01:50.473Z,1.13
2018-07-31T09:04:18.624Z,1.20
2018-07-31T09:06:46.706Z,1.30
2018-07-31T09:09:14.849Z,1.40
2018-07-31T09:11:42.958Z,1.30
2018-07-31T09:14:11.091Z,1.07
2018-07-31T09:16:39.334Z,1.40
2018-07-31T09:19:07.496Z,1.00
2018-07-31T09:21:35.546Z,1.10
2018-07-31T09:24:03.954Z,1.20
2018-07-31T09:26:32.077Z,1.10
2018-07-31T09:29:00.177Z,1.20
2018-07-31T09:31:28.336Z,1.30
2018-07-31T09:33:56.495Z,0.90
2018-07-31T09:36:24.715Z,1.13
2018-07-31T09:38:59.160Z,1.30
2018-07-31T09:41:27.271Z,1.07
2018-07-31T09:43:55.375Z,1.23
2018-07-31T09:46:23.247Z,1.10
2018-07-31T09:48:51.171Z,0.90
2018-07-31T09:51:19.327Z,1.10
2018-07-31T09:53:47.452Z,1.30
2018-07-31T09:56:15.366Z,1.07
2018-07-31T09:58:43.500Z,1.07
2018-07-31T10:01:18.427Z,1.00
2018-07-31T10:03:46.585Z,1.00
2018-07-31T10:06:14.732Z,1.13
2018-07-31T10:08:42.880Z,1.10
2018-07-31T10:11:11.041Z,1.30
2018-07-31T10:13:39.182Z,1.10
2018-07-31T10:16:07.279Z,0.93
2018-07-31T10:18:35.372Z,1.23
2018-07-31T10:21:03.493Z,1.17
2018-07-31T10:23:31.576Z,1.07
2018-07-31T10:25:59.686Z,0.90
2018-07-31T10:28:27.868Z,1.07
2018-07-31T10:30:56.002Z,1.10
2018-07-31T10:33:24.104Z,1.20
2018-07-31T10:35:51.987Z,1.20
2018-07-31T10:38:20.072Z,1.23
2018-07-31T10:40:48.180Z,1.27
2018-07-31T10:43:16.292Z,1.03
2018-07-31T10:45:44.420Z,1.10
2018-07-31T10:48:12.524Z,1.10
2018-07-31T10:50:40.503Z,1.00
2018-07-31T10:53:08.608Z,0.80
2018-07-31T10:55:36.751Z,0.87
2018-07-31T10:58:04.904Z,1.03
2018-07-31T11:00:33.042Z,1.00
2018-07-31T11:03:01.124Z,1.20
2018-07-31T11:05:29.214Z,1.10
2018-07-31T11:07:57.379Z,0.90
2018-07-31T11:10:25.500Z,1.10
2018-07-31T11:12:53.376Z,1.03
2018-07-31T11:15:21.473Z,1.00
2018-07-31T11:17:49.672Z,0.83
2018-07-31T11:20:24.168Z,1.03
2018-07-31T11:22:52.286Z,0.90
2018-07-31T11:25:20.153Z,1.00
2018-07-31T11:27:48.298Z,0.90
2018-07-31T11:30:16.417Z,1.00
2018-07-31T11:32:44.541Z,1.00
2018-07-31T11:35:12.693Z,1.13
2018-07-31T11:37:40.800Z,0.90
2018-07-31T11:40:08.948Z,0.97
2018-07-31T11:42:37.043Z,1.10
2018-07-31T11:45:05.260Z,1.00
2018-07-31T11:47:33.407Z,1.23
2018-07-31T11:50:01.404Z,1.10
2018-07-31T11:52:29.431Z,0.93
2018-07-31T11:54:57.748Z,1.07
2018-07-31T11:57:25.678Z,0.90
2018-07-31T11:59:53.819Z,1.07
2018-07-31T12:02:21.959Z,0.97
2018-07-31T12:04:50.074Z,1.27
2018-07-31T12:07:18.212Z,1.10
2018-07-31T12:09:46.350Z,1.10
2018-07-31T12:12:14.475Z,0.90
2018-07-31T12:14:42.606Z,0.87
2018-07-31T12:17:10.709Z,1.00
2018-07-31T12:19:38.832Z,0.90
2018-07-31T12:22:06.990Z,1.00
2018-07-31T12:24:35.128Z,1.17
2018-07-31T12:27:03.293Z,1.07
2018-07-31T12:29:31.508Z,0.90
2018-07-31T12:31:59.688Z,0.90
2018-07-31T12:34:27.820Z,1.13
2018-07-31T12:36:55.755Z,1.00
2018-07-31T12:39:23.899Z,1.20
2018-07-31T12:41:52.064Z,0.97
2018-07-31T12:44:20.156Z,1.20
2018-07-31T12:46:48.318Z,0.90
2018-07-31T12:49:16.456Z,0.90
2018-07-31T12:51:44.576Z,0.93
2018-07-31T12:54:12.787Z,1.00
2018-07-31T12:56:40.895Z,1.00
2018-07-31T12:59:09.009Z,1.00
2018-07-31T13:01:37.156Z,1.00
2018-07-31T13:04:05.264Z,0.90
2018-07-31T13:06:33.429Z,1.23
2018-07-31T13:09:01.521Z,0.90
2018-07-31T13:11:29.435Z,1.00
2018-07-31T13:13:57.520Z,1.10
2018-07-31T13:16:25.634Z,1.07
2018-07-31T13:18:53.758Z,1.03
2018-07-31T13:21:21.630Z,1.13
2018-07-31T13:23:49.760Z,1.07
2018-07-31T13:26:17.888Z,0.90
2018-07-31T13:28:46.036Z,0.90
2018-07-31T13:31:14.147Z,1.00
2018-07-31T13:33:42.275Z,1.00
2018-07-31T13:36:10.191Z,1.10
2018-07-31T13:38:38.301Z,1.00
2018-07-31T13:41:06.761Z,1.13
2018-07-31T13:43:34.882Z,1.00
2018-07-31T13:46:02.771Z,1.10
2018-07-31T13:48:30.891Z,1.30
2018-07-31T13:50:59.030Z,1.10
2018-07-31T13:53:27.145Z,1.00
2018-07-31T13:55:55.253Z,1.23
2018-07-31T13:58:23.397Z,1.20
2018-07-31T14:00:51.512Z,1.00
2018-07-31T14:03:19.632Z,1.23
2018-07-31T14:05:47.750Z,1.30
2018-07-31T14:08:15.831Z,1.20
2018-07-31T14:10:43.952Z,1.00
2018-07-31T14:13:12.078Z,1.37
2018-07-31T14:15:40.217Z,1.37
2018-07-31T14:18:08.317Z,1.40
2018-07-31T14:20:36.455Z,1.20
2018-07-31T14:23:04.543Z,1.37
2018-07-31T14:25:32.638Z,1.30
2018-07-31T14:28:00.733Z,1.30
2018-07-31T14:30:28.914Z,1.20
2018-07-31T14:32:57.011Z,1.30
2018-07-31T14:35:25.095Z,1.30
2018-07-31T14:37:53.206Z,1.17
2018-07-31T14:40:21.328Z,1.37
2018-07-31T14:42:49.503Z,1.20
2018-07-31T14:45:17.568Z,1.30
2018-07-31T14:47:45.658Z,1.10
2018-07-31T14:50:13.769Z,1.17
2018-07-31T14:52:41.855Z,1.40
2018-07-31T14:55:10.107Z,1.50
2018-07-31T14:57:38.207Z,1.30
2018-07-31T15:00:06.984Z,1.40
2018-07-31T15:02:35.356Z,1.20
2018-07-31T15:05:03.431Z,1.20
2018-07-31T15:07:31.551Z,1.20
2018-07-31T15:09:59.688Z,1.20
2018-07-31T15:12:27.815Z,1.37
2018-07-31T15:14:55.969Z,1.20
2018-07-31T15:17:24.064Z,1.13
2018-07-31T15:19:52.340Z,1.43
2018-07-31T15:22:20.552Z,1.10
2018-07-31T15:24:48.715Z,1.30
2018-07-31T15:27:16.800Z,1.50
2018-07-31T15:29:44.897Z,1.30
2018-07-31T15:32:12.982Z,1.30
2018-07-31T15:34:41.080Z,1.30
2018-07-31T15:37:09.198Z,1.20
2018-07-31T15:39:37.329Z,1.10
2018-07-31T15:42:05.234Z,1.10
2018-07-31T15:44:33.344Z,1.23
2018-07-31T15:47:01.249Z,1.27
2018-07-31T15:49:29.380Z,1.40
2018-07-31T15:51:57.525Z,1.40
2018-07-31T15:54:25.685Z,1.23
2018-07-31T15:56:53.827Z,1.30
2018-07-31T15:59:21.718Z,1.23
2018-07-31T16:01:49.875Z,1.40
2018-07-31T16:04:17.996Z,1.50
2018-07-31T16:06:46.172Z,1.53
2018-07-31T16:09:14.273Z,1.43
2018-07-31T16:11:42.421Z,1.20
2018-07-31T16:14:10.528Z,1.20
2018-07-31T16:16:38.515Z,1.30
2018-07-31T16:19:06.652Z,1.63
2018-07-31T16:21:34.731Z,1.40
2018-07-31T16:24:02.618Z,1.33
2018-07-31T16:26:30.728Z,1.33
2018-07-31T16:28:58.841Z,1.37
2018-07-31T16:31:26.919Z,1.53
2018-07-31T16:33:55.035Z,1.40
2018-07-31T16:36:23.132Z,1.43
2018-07-31T16:38:51.252Z,1.70
2018-07-31T16:41:19.131Z,1.73
2018-07-31T16:43:47.220Z,1.70
2018-07-31T16:46:15.338Z,1.30
2018-07-31T16:48:43.516Z,1.67
2018-07-31T16:51:11.661Z,1.23
2018-07-31T16:53:39.789Z,1.47
2018-07-31T16:56:07.703Z,1.47
2018-07-31T16:58:35.869Z,1.20
2018-07-31T17:01:04.000Z,1.57
2018-07-31T17:03:32.205Z,1.40
2018-07-31T17:06:00.362Z,1.40
2018-07-31T17:08:28.507Z,1.50
2018-07-31T17:10:56.897Z,1.37
2018-07-31T17:13:25.087Z,1.80
2018-07-31T17:15:53.298Z,1.60
2018-07-31T17:18:21.398Z,1.70
2018-07-31T17:20:49.558Z,1.40
2018-07-31T17:23:17.702Z,1.37
2018-07-31T17:25:45.886Z,1.67
2018-07-31T17:28:14.016Z,1.40
2018-07-31T17:30:41.975Z,1.60
2018-07-31T17:33:09.984Z,1.70
2018-07-31T17:35:38.172Z,1.40
2018-07-31T17:38:06.297Z,1.80
2018-07-31T17:40:34.430Z,1.50
2018-07-31T17:43:02.567Z,1.63
2018-07-31T17:45:30.751Z,1.80
2018-07-31T17:47:58.852Z,1.70
2018-07-31T17:50:27.107Z,1.57
2018-07-31T17:52:55.257Z,1.40
2018-07-31T17:55:23.420Z,1.30
2018-07-31T17:57:51.331Z,1.40
2018-07-31T18:00:19.444Z,1.40
2018-07-31T18:02:47.640Z,1.40
2018-07-31T18:05:15.590Z,1.60
2018-07-31T18:07:43.776Z,1.50
2018-07-31T18:10:12.015Z,1.80
2018-07-31T18:12:40.141Z,1.60
2018-07-31T18:15:08.309Z,1.50
2018-07-31T18:17:36.253Z,1.60
2018-07-31T18:20:04.694Z,2.10
2018-07-31T18:22:32.884Z,1.57
2018-07-31T18:25:01.096Z,1.80
2018-07-31T18:27:29.238Z,1.50
2018-07-31T18:29:57.356Z,1.50
2018-07-31T18:32:25.259Z,1.60
2018-07-31T18:34:53.435Z,1.53
2018-07-31T18:37:21.353Z,1.50
2018-07-31T18:39:49.505Z,1.30
2018-07-31T18:42:17.718Z,1.80
2018-07-31T18:44:45.936Z,1.73
2018-07-31T18:47:14.149Z,2.10
2018-07-31T18:49:42.268Z,1.80
2018-07-31T18:52:10.415Z,1.47
2018-07-31T18:54:38.622Z,1.33
2018-07-31T18:57:06.847Z,1.60
2018-07-31T18:59:35.024Z,1.67
2018-07-31T19:02:03.210Z,1.67
2018-07-31T19:04:31.489Z,1.70
2018-07-31T19:06:59.448Z,1.47
2018-07-31T19:09:27.634Z,1.50
2018-07-31T19:11:55.833Z,1.83
2018-07-31T19:14:24.069Z,1.80
2018-07-31T19:16:52.336Z,1.80
2018-07-31T19:19:20.504Z,1.60
2018-07-31T19:21:48.724Z,1.70
2018-07-31T19:24:16.892Z,1.53
2018-07-31T19:26:45.057Z,1.53
2018-07-31T19:29:12.963Z,1.73
2018-07-31T19:31:41.144Z,1.67
2018-07-31T19:34:10.173Z,1.33
2018-07-31T19:36:38.047Z,1.60
2018-07-31T19:39:07.123Z,1.80
2018-07-31T19:41:35.281Z,1.43
2018-07-31T19:44:03.424Z,1.57
2018-07-31T19:46:31.390Z,1.70
2018-07-31T19:48:59.518Z,1.63
2018-07-31T19:51:27.692Z,1.70
2018-07-31T19:53:56.015Z,1.67
2018-07-31T19:56:24.197Z,1.60
2018-07-31T19:58:52.369Z,1.83
2018-07-31T20:01:20.541Z,1.80
2018-07-31T20:03:48.705Z,1.53
2018-07-31T20:06:16.877Z,1.20
2018-07-31T20:08:45.020Z,1.50
2018-07-31T20:11:13.136Z,1.50
2018-07-31T20:13:41.007Z,1.80
2018-07-31T20:16:09.129Z,1.43
2018-07-31T20:18:37.241Z,1.50
2018-07-31T20:21:05.170Z,1.50
2018-07-31T20:23:33.288Z,1.77
2018-07-31T20:26:01.446Z,1.43
2018-07-31T20:28:29.348Z,1.83
2018-07-31T20:30:57.525Z,1.53
2018-07-31T20:33:25.676Z,1.40
2018-07-31T20:35:53.856Z,1.60
2018-07-31T20:38:21.984Z,1.57
2018-07-31T20:40:50.176Z,1.63
2018-07-31T20:43:18.337Z,1.40
2018-07-31T20:45:46.544Z,1.53
2018-07-31T20:48:14.700Z,1.50
2018-07-31T20:50:42.896Z,1.10
2018-07-31T20:53:11.028Z,1.47
2018-07-31T20:55:39.378Z,1.60
2018-07-31T20:58:07.555Z,1.40
2018-07-31T21:00:35.821Z,1.40
2018-07-31T21:03:03.980Z,1.60
2018-07-31T21:05:32.184Z,1.40
2018-07-31T21:08:00.332Z,1.33
2018-07-31T21:10:28.712Z,1.43
2018-07-31T21:12:57.080Z,1.30
2018-07-31T21:15:25.086Z,1.30
2018-07-31T21:17:53.275Z,1.80
2018-07-31T21:20:21.568Z,1.43
2018-07-31T21:22:49.736Z,1.37
2018-07-31T21:25:18.271Z,1.20
2018-07-31T21:27:46.444Z,1.30
2018-07-31T21:30:14.606Z,1.40
2018-07-31T21:32:42.838Z,1.27
2018-07-31T21:35:10.952Z,1.57
2018-07-31T21:37:38.851Z,1.57
2018-07-31T21:40:07.377Z,1.37
2018-07-31T21:42:35.691Z,1.60
2018-07-31T21:45:03.856Z,1.50
2018-07-31T21:47:32.642Z,1.50
2018-07-31T21:50:00.912Z,1.37
2018-07-31T21:52:28.819Z,1.20
2018-07-31T21:54:56.969Z,1.50
2018-07-31T21:57:28.225Z,1.37
2018-07-31T21:59:56.895Z,1.33
2018-07-31T22:02:26.660Z,1.30
2018-07-31T22:04:54.852Z,1.40
2018-07-31T22:07:22.982Z,1.30
2018-07-31T22:09:51.153Z,1.40
2018-07-31T22:12:19.384Z,1.37
2018-07-31T22:14:47.528Z,1.70
2018-07-31T22:17:15.698Z,1.40
2018-07-31T22:19:43.876Z,1.20
2018-07-31T22:22:12.028Z,1.27
2018-07-31T22:24:40.226Z,1.30
2018-07-31T22:27:08.419Z,1.23
2018-07-31T22:29:36.548Z,1.50
2018-07-31T22:32:04.696Z,1.20
2018-07-31T22:34:32.869Z,1.20
2018-07-31T22:37:00.817Z,1.50
2018-07-31T22:39:28.951Z,1.53
2018-07-31T22:41:57.121Z,1.50
2018-07-31T22:44:25.349Z,1.30
2018-07-31T22:46:53.536Z,1.50
2018-07-31T22:49:21.677Z,1.50
2018-07-31T22:51:49.808Z,1.37
2018-07-31T22:54:17.980Z,1.10
2018-07-31T22:56:46.156Z,1.50
2018-07-31T22:59:14.379Z,1.47
2018-07-31T23:01:42.507Z,1.47
2018-07-31T23:04:10.672Z,1.40
2018-07-31T23:06:38.773Z,1.20
2018-07-31T23:09:08.571Z,1.27
2018-07-31T23:11:36.966Z,1.43
2018-07-31T23:14:05.153Z,1.30
2018-07-31T23:16:33.501Z,1.17
2018-07-31T23:19:01.644Z,1.30
2018-07-31T23:21:29.817Z,1.53
2018-07-31T23:23:57.971Z,1.40
2018-07-31T23:26:26.115Z,1.20
2018-07-31T23:28:54.307Z,1.40
2018-07-31T23:31:22.448Z,1.40
2018-07-31T23:33:50.660Z,1.37
2018-07-31T23:36:18.815Z,1.00
2018-07-31T23:38:46.992Z,1.27
2018-07-31T23:41:15.132Z,1.30
2018-07-31T23:43:43.389Z,1.30
2018-07-31T23:46:11.561Z,1.10
2018-07-31T23:48:39.746Z,1.27
2018-07-31T23:51:07.971Z,1.30
2018-07-31T23:53:36.154Z,1.30
2018-07-31T23:56:04.260Z,1.30
2018-07-31T23:58:32.410Z,1.20
